Time;durP1;ratioP1;P1;durP2;ratioP2;P2;SDS_P1;SDS_P2;PMS_P1;PMS_P2;Temp;Humidity;BMP_temperature;BMP_pressure;BME280_temperature;BME280_humidity;BME280_pressure;Samples;Min_cycle;Max_cycle;Signal;HPM_P1;HPM_P2
2022/09/12 00:01:22;;;;;;;8.68;5.18;;;;;;;;;;5047244;28;20021;-64
2022/09/12 00:03:51;;;;;;;9.30;5.03;;;;;;;;;;5047266;28;20021;-64
2022/09/12 00:06:20;;;;;;;8.20;4.72;;;;;;;;;;5047145;28;20127;-64
2022/09/12 00:08:45;;;;;;;10.35;4.95;;;;;;;;;;5046892;28;20029;-64
2022/09/12 00:11:11;;;;;;;8.88;5.20;;;;;;;;;;5047227;28;20025;-65
2022/09/12 00:13:39;;;;;;;9.07;5.10;;;;;;;;;;5046835;28;20048;-64
2022/09/12 00:16:05;;;;;;;9.82;5.80;;;;;;;;;;5045475;28;20053;-65
2022/09/12 00:18:31;;;;;;;12.43;6.23;;;;;;;;;;5026826;28;20056;-64
2022/09/12 00:20:56;;;;;;;9.68;5.78;;;;;;;;;;5026560;28;20071;-64
2022/09/12 00:23:22;;;;;;;12.60;6.13;;;;;;;;;;5027169;28;20521;-65
2022/09/12 00:25:48;;;;;;;11.60;5.78;;;;;;;;;;5037425;28;20524;-64
2022/09/12 00:28:15;;;;;;;8.95;4.82;;;;;;;;;;5045655;28;20112;-64
2022/09/12 00:30:46;;;;;;;10.10;5.43;;;;;;;;;;5044019;28;20021;-64
2022/09/12 00:33:13;;;;;;;8.48;5.32;;;;;;;;;;5046942;28;20037;-65
2022/09/12 00:35:43;;;;;;;8.18;4.88;;;;;;;;;;5046299;28;20106;-65
2022/09/12 00:38:09;;;;;;;13.95;5.75;;;;;;;;;;5046544;28;20037;-64
2022/09/12 00:40:35;;;;;;;11.95;5.57;;;;;;;;;;5046726;28;20037;-65
2022/09/12 00:43:00;;;;;;;8.75;4.65;;;;;;;;;;5050677;28;20028;-65
2022/09/12 00:45:28;;;;;;;13.20;5.95;;;;;;;;;;5047361;28;20063;-64
2022/09/12 00:47:55;;;;;;;8.75;5.10;;;;;;;;;;5038798;28;20037;-64
2022/09/12 00:50:20;;;;;;;8.40;5.03;;;;;;;;;;5030667;28;20061;-64
2022/09/12 00:52:53;;;;;;;10.98;5.72;;;;;;;;;;5030769;28;20109;-64
2022/09/12 00:55:26;;;;;;;9.97;5.77;;;;;;;;;;5047314;28;20028;-64
2022/09/12 00:58:05;;;;;;;13.45;5.50;;;;;;;;;;5050590;28;20271;-65
2022/09/12 01:00:31;;;;;;;10.65;5.60;;;;;;;;;;5050338;28;20515;-64
2022/09/12 01:03:04;;;;;;;10.38;5.22;;;;;;;;;;5046792;28;20045;-64
2022/09/12 01:05:32;;;;;;;;;;;;;;;;;;5046757;28;20033;-64
2022/09/12 01:08:00;;;;;;;8.57;4.50;;;;;;;;;;5048903;28;19916;-65
2022/09/12 01:10:25;;;;;;;10.15;5.00;;;;;;;;;;5049606;28;20023;-64
2022/09/12 01:12:51;;;;;;;13.73;5.65;;;;;;;;;;5048466;28;20029;-64
2022/09/12 01:15:16;;;;;;;10.05;5.45;;;;;;;;;;5049649;28;20116;-64
2022/09/12 01:17:55;;;;;;;8.35;5.20;;;;;;;;;;5030552;28;20068;-65
2022/09/12 01:20:54;;;;;;;10.55;5.55;;;;;;;;;;5049568;28;20037;-64
2022/09/12 01:23:59;;;;;;;11.07;5.60;;;;;;;;;;5039070;28;20036;-64
2022/09/12 01:26:59;;;;;;;10.30;4.95;;;;;;;;;;5049663;28;20033;-64
2022/09/12 01:29:48;;;;;;;8.30;4.95;;;;;;;;;;5049593;28;20086;-64
2022/09/12 01:32:19;;;;;;;9.23;5.07;;;;;;;;;;5049418;28;20116;-64
2022/09/12 01:35:06;;;;;;;10.48;5.05;;;;;;;;;;5049444;28;20036;-65
2022/09/12 01:37:53;;;;;;;8.57;4.90;;;;;;;;;;5043033;28;20029;-64
2022/09/12 01:40:45;;;;;;;9.10;5.28;;;;;;;;;;5044900;28;20025;-64
2022/09/12 01:43:36;;;;;;;10.02;5.13;;;;;;;;;;5012191;28;20128;-64
2022/09/12 01:46:16;;;;;;;9.32;5.30;;;;;;;;;;5047559;28;20024;-64
2022/09/12 01:48:56;;;;;;;9.77;5.72;;;;;;;;;;5049228;28;20462;-64
2022/09/12 01:51:31;;;;;;;9.63;5.55;;;;;;;;;;5049336;28;20461;-64
2022/09/12 01:54:06;;;;;;;16.27;6.63;;;;;;;;;;5048792;28;20033;-64
2022/09/12 01:56:34;;;;;;;10.00;5.35;;;;;;;;;;5039490;28;20029;-64
2022/09/12 01:59:20;;;;;;;14.32;6.97;;;;;;;;;;5048984;28;20048;-64
2022/09/12 02:01:59;;;;;;;10.32;5.65;;;;;;;;;;5048769;28;20043;-65
2022/09/12 02:04:30;;;;;;;13.02;5.90;;;;;;;;;;5049477;28;20509;-64
2022/09/12 02:07:07;;;;;;;12.18;6.00;;;;;;;;;;5049062;28;20758;-65
2022/09/12 02:09:32;;;;;;;12.50;6.43;;;;;;;;;;5042211;28;20036;-64
2022/09/12 02:12:00;;;;;;;9.95;5.65;;;;;;;;;;5048047;28;20071;-64
2022/09/12 02:14:32;;;;;;;12.63;5.30;;;;;;;;;;5048950;28;20052;-64
2022/09/12 02:17:04;;;;;;;9.95;5.85;;;;;;;;;;5030412;28;20127;-64
2022/09/12 02:19:39;;;;;;;13.25;6.07;;;;;;;;;;5048789;28;20033;-64
2022/09/12 02:22:05;;;;;;;9.27;5.13;;;;;;;;;;5049166;28;20032;-64
2022/09/12 02:24:34;;;;;;;13.57;5.32;;;;;;;;;;5030989;28;20038;-64
2022/09/12 02:27:08;;;;;;;10.63;5.72;;;;;;;;;;5048435;28;20544;-64
2022/09/12 02:29:34;;;;;;;9.05;5.40;;;;;;;;;;5048699;28;20037;-64
2022/09/12 02:32:05;;;;;;;11.05;5.28;;;;;;;;;;5048523;28;20028;-64
2022/09/12 02:34:52;;;;;;;12.07;5.50;;;;;;;;;;5048875;28;20055;-64
2022/09/12 02:38:01;;;;;;;12.18;5.63;;;;;;;;;;5048082;28;20453;-65
2022/09/12 02:40:28;;;;;;;14.82;6.68;;;;;;;;;;5001395;28;20056;-65
2022/09/12 02:42:54;;;;;;;10.52;5.38;;;;;;;;;;5048877;28;20037;-64
2022/09/12 02:45:22;;;;;;;9.93;5.45;;;;;;;;;;5048339;28;20086;-64
2022/09/12 02:48:09;;;;;;;18.13;5.68;;;;;;;;;;5044974;28;20571;-64
2022/09/12 02:50:35;;;;;;;10.35;5.90;;;;;;;;;;5048489;28;20580;-64
2022/09/12 02:53:03;;;;;;;11.70;6.50;;;;;;;;;;5048278;28;20235;-64
2022/09/12 02:55:31;;;;;;;12.25;6.57;;;;;;;;;;5047780;28;20041;-64
2022/09/12 02:57:58;;;;;;;10.48;5.90;;;;;;;;;;5048719;28;20025;-65
2022/09/12 03:00:24;;;;;;;12.00;6.25;;;;;;;;;;5047175;28;20561;-64
2022/09/12 03:03:19;;;;;;;12.50;5.93;;;;;;;;;;5033922;28;20086;-64
2022/09/12 03:05:51;;;;;;;9.30;4.97;;;;;;;;;;5027299;28;20048;-64
2022/09/12 03:08:54;;;;;;;9.98;5.53;;;;;;;;;;5010274;28;20057;-65
2022/09/12 03:11:38;;;;;;;9.27;5.13;;;;;;;;;;5027985;28;20095;-64
2022/09/12 03:14:15;;;;;;;7.88;4.85;;;;;;;;;;5028183;28;20456;-65
2022/09/12 03:17:15;;;;;;;10.98;5.57;;;;;;;;;;5034157;28;20109;-64
2022/09/12 03:20:21;;;;;;;10.93;6.30;;;;;;;;;;5021258;28;20048;-64
2022/09/12 03:22:54;;;;;;;10.77;5.85;;;;;;;;;;4950129;28;20685;-64
2022/09/12 03:25:22;;;;;;;10.55;5.82;;;;;;;;;;5037412;28;20047;-64
2022/09/12 03:28:06;;;;;;;12.00;6.20;;;;;;;;;;5048091;28;20383;-64
2022/09/12 03:30:38;;;;;;;10.85;5.68;;;;;;;;;;5029521;28;20460;-65
2022/09/12 03:33:04;;;;;;;14.33;6.13;;;;;;;;;;5047746;28;20047;-64
2022/09/12 03:35:29;;;;;;;16.77;6.55;;;;;;;;;;5045050;28;20029;-64
2022/09/12 03:37:54;;;;;;;12.25;6.15;;;;;;;;;;5047153;28;20107;-64
2022/09/12 03:40:20;;;;;;;8.95;5.57;;;;;;;;;;5047384;28;20116;-64
2022/09/12 03:42:45;;;;;;;8.75;4.90;;;;;;;;;;5047531;28;20037;-64
2022/09/12 03:45:10;;;;;;;10.40;5.43;;;;;;;;;;5047436;28;20609;-64
2022/09/12 03:47:36;;;;;;;11.05;4.95;;;;;;;;;;5041677;28;20033;-65
2022/09/12 03:50:02;;;;;;;11.73;5.82;;;;;;;;;;5045371;28;20044;-64
2022/09/12 03:52:28;;;;;;;10.23;5.43;;;;;;;;;;5047384;28;20032;-64
2022/09/12 03:54:53;;;;;;;12.35;5.82;;;;;;;;;;5047488;28;20060;-64
2022/09/12 03:57:18;;;;;;;9.38;5.53;;;;;;;;;;5046202;28;20090;-64
2022/09/12 03:59:44;;;;;;;10.98;5.32;;;;;;;;;;5046038;28;20087;-64
2022/09/12 04:02:12;;;;;;;10.95;5.63;;;;;;;;;;5047524;28;20029;-65
2022/09/12 04:04:37;;;;;;;12.32;5.70;;;;;;;;;;5046896;28;20057;-64
2022/09/12 04:07:03;;;;;;;10.07;5.38;;;;;;;;;;5047672;28;20515;-64
2022/09/12 04:09:28;;;;;;;11.00;5.13;;;;;;;;;;5046964;28;20044;-64
2022/09/12 04:11:53;;;;;;;8.38;5.15;;;;;;;;;;5047010;28;20041;-64
2022/09/12 04:14:19;;;;;;;10.32;5.82;;;;;;;;;;5047207;28;20052;-64
2022/09/12 04:16:44;;;;;;;10.05;5.90;;;;;;;;;;5048061;28;20130;-64
2022/09/12 04:19:11;;;;;;;11.50;5.50;;;;;;;;;;5051241;28;20584;-64
2022/09/12 04:21:36;;;;;;;10.10;5.25;;;;;;;;;;5050782;28;20731;-64
2022/09/12 04:24:02;;;;;;;10.68;5.35;;;;;;;;;;5051126;28;20079;-64
2022/09/12 04:26:28;;;;;;;10.63;5.78;;;;;;;;;;5033114;28;20037;-64
2022/09/12 04:28:56;;;;;;;10.63;4.85;;;;;;;;;;5050892;28;20465;-64
2022/09/12 04:31:22;;;;;;;9.00;5.20;;;;;;;;;;5051053;28;20040;-64
2022/09/12 04:33:58;;;;;;;11.88;5.78;;;;;;;;;;5051120;28;20104;-64
2022/09/12 04:36:25;;;;;;;7.97;4.68;;;;;;;;;;5050843;28;20051;-64
2022/09/12 04:38:51;;;;;;;10.98;4.90;;;;;;;;;;5032362;28;20037;-64
2022/09/12 04:41:25;;;;;;;7.43;4.57;;;;;;;;;;5051036;28;20098;-64
2022/09/12 04:43:53;;;;;;;6.90;4.43;;;;;;;;;;5046599;28;20102;-64
2022/09/12 04:46:19;;;;;;;9.88;5.70;;;;;;;;;;5049165;28;20032;-64
2022/09/12 04:48:46;;;;;;;9.77;5.65;;;;;;;;;;5051069;28;20025;-64
2022/09/12 04:51:19;;;;;;;10.73;5.47;;;;;;;;;;5048921;28;20121;-64
2022/09/12 04:53:48;;;;;;;11.97;5.50;;;;;;;;;;5047197;28;20724;-64
2022/09/12 04:56:13;;;;;;;7.75;4.68;;;;;;;;;;5035587;28;20037;-65
2022/09/12 04:58:38;;;;;;;9.48;5.20;;;;;;;;;;5048209;28;20044;-64
2022/09/12 05:01:07;;;;;;;11.70;5.43;;;;;;;;;;5040813;28;20025;-64
2022/09/12 05:03:34;;;;;;;10.90;5.25;;;;;;;;;;5050261;28;20124;-64
2022/09/12 05:06:02;;;;;;;10.43;5.32;;;;;;;;;;5049399;28;20083;-64
2022/09/12 05:08:28;;;;;;;9.65;5.45;;;;;;;;;;5032114;28;20033;-64
2022/09/12 05:10:54;;;;;;;10.93;5.38;;;;;;;;;;5050109;28;20056;-64
2022/09/12 05:13:19;;;;;;;9.35;4.43;;;;;;;;;;5050053;28;20025;-64
2022/09/12 05:15:56;;;;;;;13.15;5.80;;;;;;;;;;5049983;28;20052;-64
2022/09/12 05:18:22;;;;;;;10.18;5.32;;;;;;;;;;5049746;28;20033;-64
2022/09/12 05:20:47;;;;;;;11.43;5.40;;;;;;;;;;5049958;28;20515;-64
2022/09/12 05:23:12;;;;;;;10.27;5.38;;;;;;;;;;5050456;28;20083;-64
2022/09/12 05:25:37;;;;;;;8.95;4.65;;;;;;;;;;5050026;28;20068;-64
2022/09/12 05:28:03;;;;;;;8.05;4.80;;;;;;;;;;5048623;28;20563;-64
2022/09/12 05:30:28;;;;;;;13.65;5.55;;;;;;;;;;5048556;28;20048;-64
2022/09/12 05:32:54;;;;;;;10.75;5.50;;;;;;;;;;5031047;28;20033;-64
2022/09/12 05:35:20;;;;;;;11.30;4.90;;;;;;;;;;5049338;28;20040;-64
2022/09/12 05:37:45;;;;;;;10.98;5.45;;;;;;;;;;5031484;28;20032;-64
2022/09/12 05:40:12;;;;;;;12.07;4.95;;;;;;;;;;5049301;28;20031;-64
2022/09/12 05:42:37;;;;;;;9.27;4.88;;;;;;;;;;5049943;28;20017;-64
2022/09/12 05:45:03;;;;;;;8.13;4.63;;;;;;;;;;5044963;28;20537;-64
2022/09/12 05:47:28;;;;;;;9.98;4.80;;;;;;;;;;5049585;28;20036;-64
2022/09/12 05:49:54;;;;;;;10.52;4.75;;;;;;;;;;5049673;28;20044;-64
2022/09/12 05:52:19;;;;;;;11.32;5.07;;;;;;;;;;5045970;28;20021;-64
2022/09/12 05:54:45;;;;;;;13.70;5.78;;;;;;;;;;5031984;28;20036;-64
2022/09/12 05:57:10;;;;;;;9.95;5.63;;;;;;;;;;5040201;28;20112;-64
2022/09/12 05:59:36;;;;;;;11.05;5.68;;;;;;;;;;5048727;28;20510;-64
2022/09/12 06:02:01;;;;;;;11.13;5.30;;;;;;;;;;5048951;28;20032;-64
2022/09/12 06:04:26;;;;;;;10.05;5.45;;;;;;;;;;5048476;28;20087;-64
2022/09/12 06:06:52;;;;;;;12.18;5.90;;;;;;;;;;5049495;28;20031;-64
2022/09/12 06:09:17;;;;;;;8.77;5.32;;;;;;;;;;5049257;28;20036;-64
2022/09/12 06:11:44;;;;;;;10.90;5.30;;;;;;;;;;5030985;28;20044;-64
2022/09/12 06:14:11;;;;;;;13.27;5.82;;;;;;;;;;5044102;28;20029;-64
2022/09/12 06:16:37;;;;;;;13.82;5.55;;;;;;;;;;5026503;28;20064;-64
2022/09/12 06:19:26;;;;;;;11.02;5.68;;;;;;;;;;5030182;28;20147;-64
2022/09/12 06:21:52;;;;;;;13.20;6.13;;;;;;;;;;5031385;28;20493;-64
2022/09/12 06:24:19;;;;;;;11.73;5.53;;;;;;;;;;5032387;28;20045;-64
2022/09/12 06:26:46;;;;;;;14.00;5.75;;;;;;;;;;5047374;28;20258;-65
2022/09/12 06:29:12;;;;;;;11.85;6.03;;;;;;;;;;5048764;28;20029;-64
2022/09/12 06:31:40;;;;;;;10.90;6.03;;;;;;;;;;5048888;28;20162;-64
2022/09/12 06:34:07;;;;;;;14.18;6.30;;;;;;;;;;5048898;28;20061;-64
2022/09/12 06:36:36;;;;;;;13.55;6.07;;;;;;;;;;5049012;28;20064;-64
2022/09/12 06:39:09;;;;;;;13.18;5.97;;;;;;;;;;5047293;28;20063;-64
2022/09/12 06:41:35;;;;;;;;;;;;;;;;;;5049129;28;20588;-64
2022/09/12 06:44:01;;;;;;;13.93;5.90;;;;;;;;;;5030512;28;19948;-64
2022/09/12 06:46:26;;;;;;;13.23;6.70;;;;;;;;;;5048469;28;22297;-64
2022/09/12 06:48:54;;;;;;;14.70;5.93;;;;;;;;;;5045175;28;20705;-64
2022/09/12 06:51:20;;;;;;;12.25;6.07;;;;;;;;;;5045557;28;20502;-64
2022/09/12 06:53:46;;;;;;;12.23;6.25;;;;;;;;;;5047063;28;20094;-64
2022/09/12 06:56:13;;;;;;;13.95;7.20;;;;;;;;;;5048088;28;20024;-64
2022/09/12 06:58:39;;;;;;;14.98;7.18;;;;;;;;;;5046854;28;20043;-64
2022/09/12 07:01:12;;;;;;;12.70;6.60;;;;;;;;;;5047561;28;20033;-64
2022/09/12 07:03:38;;;;;;;16.35;7.43;;;;;;;;;;5047558;28;20528;-64
2022/09/12 07:06:06;;;;;;;13.73;7.30;;;;;;;;;;5047068;28;20202;-64
2022/09/12 07:08:36;;;;;;;15.63;8.18;;;;;;;;;;5043772;28;20029;-64
2022/09/12 07:11:19;;;;;;;14.55;7.22;;;;;;;;;;5047200;28;20119;-64
2022/09/12 07:13:47;;;;;;;15.30;7.82;;;;;;;;;;5047726;28;20067;-64
2022/09/12 07:16:13;;;;;;;12.10;6.50;;;;;;;;;;5047540;28;20045;-64
2022/09/12 07:18:39;;;;;;;16.40;6.93;;;;;;;;;;5047734;28;20021;-64
2022/09/12 07:21:08;;;;;;;19.67;7.65;;;;;;;;;;5041627;28;20575;-64
2022/09/12 07:23:33;;;;;;;15.65;6.63;;;;;;;;;;5047840;28;20074;-64
2022/09/12 07:26:00;;;;;;;11.50;6.00;;;;;;;;;;5047848;28;20037;-64
2022/09/12 07:28:27;;;;;;;13.25;6.50;;;;;;;;;;5040943;28;20025;-64
2022/09/12 07:30:53;;;;;;;14.25;6.50;;;;;;;;;;5028179;28;20025;-64
2022/09/12 07:33:20;;;;;;;15.45;6.60;;;;;;;;;;5027265;28;20079;-64
2022/09/12 07:35:45;;;;;;;12.45;6.10;;;;;;;;;;5027450;28;20068;-64
2022/09/12 07:38:11;;;;;;;11.30;5.47;;;;;;;;;;5026823;28;20159;-64
2022/09/12 07:40:36;;;;;;;12.05;5.88;;;;;;;;;;5009701;28;20044;-64
2022/09/12 07:43:01;;;;;;;10.60;6.15;;;;;;;;;;5027507;28;20036;-64
2022/09/12 07:45:27;;;;;;;13.75;6.55;;;;;;;;;;5029579;28;20116;-64
2022/09/12 07:47:53;;;;;;;11.30;5.60;;;;;;;;;;5040859;28;20197;-64
2022/09/12 07:50:19;;;;;;;10.38;5.63;;;;;;;;;;5042635;28;20580;-64
2022/09/12 07:52:44;;;;;;;18.67;5.65;;;;;;;;;;5040445;28;20047;-64
2022/09/12 07:55:09;;;;;;;12.85;4.90;;;;;;;;;;5045969;28;20658;-64
2022/09/12 07:57:35;;;;;;;10.48;5.50;;;;;;;;;;5032848;28;20032;-64
2022/09/12 08:00:00;;;;;;;11.52;4.95;;;;;;;;;;5026508;28;20049;-64
2022/09/12 08:02:25;;;;;;;8.50;5.05;;;;;;;;;;5026909;28;20041;-65
2022/09/12 08:04:51;;;;;;;9.68;4.65;;;;;;;;;;5026292;28;20029;-64
2022/09/12 08:07:18;;;;;;;9.18;5.30;;;;;;;;;;5036130;28;20021;-64
2022/09/12 08:09:43;;;;;;;8.65;4.15;;;;;;;;;;5046837;28;20100;-64
2022/09/12 08:12:09;;;;;;;9.48;4.50;;;;;;;;;;5046379;28;20120;-64
2022/09/12 08:14:34;;;;;;;8.50;4.95;;;;;;;;;;5046049;28;20060;-64
2022/09/12 08:16:59;;;;;;;5.95;3.67;;;;;;;;;;5045847;28;20045;-64
2022/09/12 08:19:25;;;;;;;7.70;4.28;;;;;;;;;;5039101;28;20410;-64
2022/09/12 08:21:50;;;;;;;7.32;4.43;;;;;;;;;;5027133;28;20565;-64
2022/09/12 08:24:16;;;;;;;8.10;4.63;;;;;;;;;;5045303;28;20580;-64
2022/09/12 08:26:42;;;;;;;8.00;4.28;;;;;;;;;;5028049;28;20124;-64
2022/09/12 08:29:07;;;;;;;8.18;4.32;;;;;;;;;;5026483;28;20036;-64
2022/09/12 08:31:35;;;;;;;6.82;3.95;;;;;;;;;;5026314;28;20117;-64
2022/09/12 08:34:05;;;;;;;8.93;4.30;;;;;;;;;;5040219;28;20021;-64
2022/09/12 08:36:31;;;;;;;9.07;4.25;;;;;;;;;;5046284;28;20033;-64
2022/09/12 08:38:59;;;;;;;7.05;4.15;;;;;;;;;;5045481;28;20526;-64
2022/09/12 08:41:45;;;;;;;6.10;4.03;;;;;;;;;;5046024;28;20040;-64
2022/09/12 08:44:10;;;;;;;7.60;4.07;;;;;;;;;;5045732;28;20635;-64
2022/09/12 08:47:16;;;;;;;7.70;3.78;;;;;;;;;;5045633;28;20026;-64
2022/09/12 08:49:43;;;;;;;8.30;4.28;;;;;;;;;;5034610;28;20541;-64
2022/09/12 08:52:19;;;;;;;6.95;3.60;;;;;;;;;;5035637;28;20032;-64
2022/09/12 08:54:44;;;;;;;7.40;4.20;;;;;;;;;;5035859;28;20021;-64
2022/09/12 08:57:11;;;;;;;6.07;3.80;;;;;;;;;;5035933;28;20414;-64
2022/09/12 08:59:40;;;;;;;6.70;4.18;;;;;;;;;;5042357;28;20045;-64
2022/09/12 09:02:21;;;;;;;5.65;3.30;;;;;;;;;;5042241;28;20518;-64
2022/09/12 09:04:56;;;;;;;6.20;3.88;;;;;;;;;;5047199;28;20033;-63
2022/09/12 09:08:01;;;;;;;6.93;3.50;;;;;;;;;;5038368;28;20031;-64
2022/09/12 09:10:32;;;;;;;5.28;3.53;;;;;;;;;;5029862;28;21247;-64
2022/09/12 09:13:05;;;;;;;5.32;3.22;;;;;;;;;;5038339;28;20016;-63
2022/09/12 09:15:42;;;;;;;4.95;3.38;;;;;;;;;;5049174;28;20138;-63
2022/09/12 09:18:17;;;;;;;6.70;4.35;;;;;;;;;;5048954;28;20116;-64
2022/09/12 09:20:55;;;;;;;5.75;3.67;;;;;;;;;;5031295;28;20045;-64
2022/09/12 09:23:26;;;;;;;4.68;3.35;;;;;;;;;;5049753;28;20108;-64
2022/09/12 09:26:00;;;;;;;6.68;3.60;;;;;;;;;;5037632;28;20032;-64
2022/09/12 09:28:33;;;;;;;5.55;3.35;;;;;;;;;;5036620;28;20018;-64
2022/09/12 09:30:58;;;;;;;8.60;3.20;;;;;;;;;;5047014;28;20513;-64
2022/09/12 09:33:30;;;;;;;6.50;3.50;;;;;;;;;;5049244;28;20029;-64
2022/09/12 09:35:59;;;;;;;5.28;2.80;;;;;;;;;;5048983;28;20349;-64
2022/09/12 09:39:04;;;;;;;5.97;3.53;;;;;;;;;;5048927;28;20029;-64
2022/09/12 09:42:00;;;;;;;9.07;3.42;;;;;;;;;;5049368;28;20048;-63
2022/09/12 09:44:29;;;;;;;5.03;3.05;;;;;;;;;;5049293;28;20045;-64
2022/09/12 09:46:57;;;;;;;5.13;2.88;;;;;;;;;;5048940;28;20044;-64
2022/09/12 09:49:25;;;;;;;5.47;2.80;;;;;;;;;;5049223;28;20060;-64
2022/09/12 09:51:51;;;;;;;4.38;2.85;;;;;;;;;;5048918;28;20051;-63
2022/09/12 09:54:19;;;;;;;4.78;3.13;;;;;;;;;;5030490;28;20163;-64
2022/09/12 09:56:44;;;;;;;7.57;3.33;;;;;;;;;;5048777;28;20055;-64
2022/09/12 09:59:24;;;;;;;5.90;2.95;;;;;;;;;;5047622;28;20748;-64
2022/09/12 10:02:16;;;;;;;6.30;3.03;;;;;;;;;;5048492;28;20063;-64
2022/09/12 10:04:55;;;;;;;6.43;3.00;;;;;;;;;;5049105;28;20055;-64
2022/09/12 10:07:21;;;;;;;7.10;3.30;;;;;;;;;;5049004;28;20036;-64
2022/09/12 10:10:22;;;;;;;4.68;2.83;;;;;;;;;;5045491;28;20024;-64
2022/09/12 10:12:48;;;;;;;4.45;2.97;;;;;;;;;;4947676;29;20160;-65
2022/09/12 10:15:20;;;;;;;3.30;2.58;;;;;;;;;;5027049;28;20036;-64
2022/09/12 10:17:48;;;;;;;3.90;2.80;;;;;;;;;;5047923;28;20052;-64
2022/09/12 10:20:43;;;;;;;5.90;3.05;;;;;;;;;;5048329;28;20418;-64
2022/09/12 10:23:17;;;;;;;4.72;2.72;;;;;;;;;;5048273;28;20112;-64
2022/09/12 10:25:52;;;;;;;4.72;2.80;;;;;;;;;;5048466;28;20050;-64
2022/09/12 10:28:27;;;;;;;7.57;3.20;;;;;;;;;;5045445;28;20020;-65
2022/09/12 10:30:54;;;;;;;4.05;2.80;;;;;;;;;;5043789;28;20111;-64
2022/09/12 10:33:23;;;;;;;4.40;3.10;;;;;;;;;;5046195;28;20639;-64
2022/09/12 10:35:49;;;;;;;4.22;2.80;;;;;;;;;;5046073;28;20045;-64
2022/09/12 10:38:14;;;;;;;4.65;2.58;;;;;;;;;;5046078;28;20044;-64
2022/09/12 10:40:42;;;;;;;3.55;2.60;;;;;;;;;;5047919;28;20118;-64
2022/09/12 10:43:26;;;;;;;3.70;2.30;;;;;;;;;;5047641;28;20025;-64
2022/09/12 10:45:56;;;;;;;5.13;2.80;;;;;;;;;;5042064;28;20103;-63
2022/09/12 10:48:29;;;;;;;3.72;2.40;;;;;;;;;;5046808;28;20033;-63
2022/09/12 10:50:55;;;;;;;4.97;2.00;;;;;;;;;;5046698;28;20514;-64
2022/09/12 10:53:22;;;;;;;3.42;2.03;;;;;;;;;;5047727;28;20048;-64
2022/09/12 10:56:12;;;;;;;2.90;2.30;;;;;;;;;;5047101;28;20040;-63
2022/09/12 10:59:03;;;;;;;3.50;2.22;;;;;;;;;;5029176;28;20041;-63
2022/09/12 11:01:31;;;;;;;3.00;2.00;;;;;;;;;;5040785;28;20055;-64
2022/09/12 11:04:05;;;;;;;3.78;2.20;;;;;;;;;;5043908;28;20021;-63
2022/09/12 11:06:59;;;;;;;2.78;2.05;;;;;;;;;;5037257;28;20761;-63
2022/09/12 11:09:48;;;;;;;1.93;1.70;;;;;;;;;;5047567;28;20025;-64
2022/09/12 11:12:42;;;;;;;3.42;2.20;;;;;;;;;;5043340;28;20051;-64
2022/09/12 11:15:44;;;;;;;3.42;2.10;;;;;;;;;;5027553;28;20040;-64
2022/09/12 11:18:16;;;;;;;3.05;2.00;;;;;;;;;;5040085;28;20040;-64
2022/09/12 11:20:53;;;;;;;2.53;1.95;;;;;;;;;;5022798;28;20599;-64
2022/09/12 11:23:44;;;;;;;2.53;1.85;;;;;;;;;;5043621;28;20479;-64
2022/09/12 11:26:38;;;;;;;3.35;1.80;;;;;;;;;;5046516;28;20064;-64
2022/09/12 11:29:37;;;;;;;2.17;1.80;;;;;;;;;;5038148;28;20037;-64
2022/09/12 11:32:10;;;;;;;3.67;2.05;;;;;;;;;;5038067;28;20083;-63
2022/09/12 11:34:52;;;;;;;2.40;1.80;;;;;;;;;;5042732;28;20032;-64
2022/09/12 11:37:17;;;;;;;2.28;1.90;;;;;;;;;;5046282;28;20037;-63
2022/09/12 11:39:45;;;;;;;2.23;2.00;;;;;;;;;;5045605;28;20024;-64
2022/09/12 11:42:22;;;;;;;2.80;2.08;;;;;;;;;;5028141;28;20279;-64
2022/09/12 11:45:03;;;;;;;2.30;1.67;;;;;;;;;;5046099;28;20033;-63
2022/09/12 11:47:31;;;;;;;4.32;1.85;;;;;;;;;;5046101;28;20047;-64
2022/09/12 11:49:58;;;;;;;2.25;1.90;;;;;;;;;;5043103;28;20469;-64
2022/09/12 11:52:32;;;;;;;4.05;1.92;;;;;;;;;;5026211;28;20037;-63
2022/09/12 11:55:21;;;;;;;2.95;1.60;;;;;;;;;;5026797;28;20418;-64
2022/09/12 11:57:53;;;;;;;5.43;1.70;;;;;;;;;;5042830;28;20049;-64
2022/09/12 12:00:26;;;;;;;2.80;1.73;;;;;;;;;;5046836;28;20037;-63
2022/09/12 12:03:07;;;;;;;3.15;1.90;;;;;;;;;;5046420;28;20039;-66
2022/09/12 12:06:00;;;;;;;3.10;2.00;;;;;;;;;;5046411;28;20037;-64
2022/09/12 12:08:28;;;;;;;2.55;1.90;;;;;;;;;;5046887;28;20037;-64
2022/09/12 12:10:58;;;;;;;3.47;1.73;;;;;;;;;;5041000;28;20037;-64
2022/09/12 12:13:30;;;;;;;2.08;1.63;;;;;;;;;;5046843;28;20029;-64
2022/09/12 12:16:03;;;;;;;1.85;1.50;;;;;;;;;;5046790;28;20052;-64
2022/09/12 12:18:30;;;;;;;4.93;2.17;;;;;;;;;;5046404;28;20036;-64
2022/09/12 12:21:19;;;;;;;2.85;2.10;;;;;;;;;;5046178;28;20716;-64
2022/09/12 12:24:07;;;;;;;2.28;1.90;;;;;;;;;;5046776;28;20036;-64
2022/09/12 12:26:38;;;;;;;11.95;1.80;;;;;;;;;;5030332;28;20041;-63
2022/09/12 12:29:08;;;;;;;2.83;1.70;;;;;;;;;;5027059;28;20419;-64
2022/09/12 12:32:02;;;;;;;1.98;1.70;;;;;;;;;;5046802;28;20035;-64
2022/09/12 12:34:30;;;;;;;2.15;1.80;;;;;;;;;;5046766;28;20514;-63
2022/09/12 12:36:56;;;;;;;2.03;1.75;;;;;;;;;;5029031;28;20070;-64
2022/09/12 12:39:31;;;;;;;2.08;1.75;;;;;;;;;;5050163;28;20044;-63
2022/09/12 12:41:57;;;;;;;2.45;1.70;;;;;;;;;;5050694;28;20049;-64
2022/09/12 12:44:46;;;;;;;2.55;1.88;;;;;;;;;;5049333;28;20071;-64
2022/09/12 12:47:22;;;;;;;3.28;1.35;;;;;;;;;;5045213;28;20432;-64
2022/09/12 12:49:54;;;;;;;2.30;1.80;;;;;;;;;;5047473;28;20078;-63
2022/09/12 12:52:20;;;;;;;4.13;1.80;;;;;;;;;;5041702;28;20029;-64
2022/09/12 12:54:45;;;;;;;2.70;1.88;;;;;;;;;;5025779;28;20036;-64
2022/09/12 12:57:13;;;;;;;2.28;1.80;;;;;;;;;;5050210;28;20561;-64
2022/09/12 13:00:08;;;;;;;3.33;1.77;;;;;;;;;;5049643;28;20071;-63
2022/09/12 13:03:08;;;;;;;2.00;1.45;;;;;;;;;;5045866;28;20116;-64
2022/09/12 13:05:39;;;;;;;1.80;1.60;;;;;;;;;;5029484;28;20099;-63
2022/09/12 13:08:17;;;;;;;3.88;1.75;;;;;;;;;;5029683;28;20033;-63
2022/09/12 13:10:52;;;;;;;2.35;1.80;;;;;;;;;;5029855;28;20068;-64
2022/09/12 13:13:26;;;;;;;3.33;2.25;;;;;;;;;;5029362;28;20029;-63
2022/09/12 13:15:52;;;;;;;2.92;1.75;;;;;;;;;;5012737;28;20440;-63
2022/09/12 13:18:24;;;;;;;5.03;1.98;;;;;;;;;;5013275;28;20045;-64
2022/09/12 13:20:53;;;;;;;3.72;1.75;;;;;;;;;;5048901;28;20094;-64
2022/09/12 13:23:37;;;;;;;2.13;1.70;;;;;;;;;;5031242;28;20062;-63
2022/09/12 13:26:08;;;;;;;3.92;1.90;;;;;;;;;;5048555;28;20074;-64
2022/09/12 13:28:34;;;;;;;2.03;1.80;;;;;;;;;;5049148;28;20036;-63
2022/09/12 13:31:08;;;;;;;3.05;1.73;;;;;;;;;;5045796;28;20020;-64
2022/09/12 13:33:50;;;;;;;2.03;1.80;;;;;;;;;;5031302;28;20057;-64
2022/09/12 13:36:37;;;;;;;2.20;1.50;;;;;;;;;;5049165;28;20086;-64
2022/09/12 13:39:18;;;;;;;1.73;1.42;;;;;;;;;;5048958;28;20041;-63
2022/09/12 13:42:02;;;;;;;3.17;1.50;;;;;;;;;;5049295;28;20126;-64
2022/09/12 13:44:29;;;;;;;2.78;1.60;;;;;;;;;;5049434;28;20048;-63
2022/09/12 13:46:59;;;;;;;1.90;1.55;;;;;;;;;;5048855;28;20064;-63
2022/09/12 13:49:32;;;;;;;2.53;1.33;;;;;;;;;;5048984;28;20106;-63
2022/09/12 13:51:59;;;;;;;;;;;;;;;;;;5050167;28;20021;-64
2022/09/12 13:54:26;;;;;;;2.30;1.55;;;;;;;;;;5049178;28;19912;-64
2022/09/12 13:56:51;;;;;;;2.15;1.70;;;;;;;;;;5048711;28;20078;-63
2022/09/12 13:59:17;;;;;;;4.88;1.50;;;;;;;;;;5049230;28;20056;-64
2022/09/12 14:01:45;;;;;;;2.35;1.50;;;;;;;;;;5048893;28;20029;-63
2022/09/12 14:07:24;;;;;;;1.63;1.50;;;;;;;;;;5049618;28;20044;-64
2022/09/12 14:09:55;;;;;;;2.00;1.50;;;;;;;;;;5033887;28;20047;-63
2022/09/12 14:12:33;;;;;;;1.83;1.50;;;;;;;;;;5048676;28;20036;-63
2022/09/12 14:14:59;;;;;;;1.77;1.48;;;;;;;;;;5048689;28;20041;-64
2022/09/12 14:17:31;;;;;;;2.28;1.52;;;;;;;;;;5048045;28;20033;-63
2022/09/12 14:20:03;;;;;;;1.90;1.40;;;;;;;;;;5045718;28;20033;-64
2022/09/12 14:22:29;;;;;;;1.58;1.48;;;;;;;;;;5028409;28;20030;-63
2022/09/12 14:24:57;;;;;;;2.00;1.30;;;;;;;;;;5014537;28;20021;-64
2022/09/12 14:27:27;;;;;;;2.95;1.30;;;;;;;;;;5048369;28;20044;-64
2022/09/12 14:30:01;;;;;;;3.15;1.58;;;;;;;;;;5048558;28;20098;-64
2022/09/12 14:32:27;;;;;;;3.78;1.38;;;;;;;;;;5048162;28;20029;-63
2022/09/12 14:35:15;;;;;;;1.50;1.30;;;;;;;;;;5046621;28;20048;-64
2022/09/12 14:37:41;;;;;;;3.47;1.27;;;;;;;;;;5047456;28;20033;-63
2022/09/12 14:40:20;;;;;;;4.50;1.27;;;;;;;;;;5026791;28;20043;-64
2022/09/12 14:42:48;;;;;;;1.45;1.30;;;;;;;;;;5036171;28;20526;-64
2022/09/12 14:45:21;;;;;;;1.60;1.33;;;;;;;;;;5046582;28;20049;-64
2022/09/12 14:47:48;;;;;;;;;;;;;;;;;;5048347;28;20106;-64
2022/09/12 14:50:22;;;;;;;1.88;1.20;;;;;;;;;;5048286;28;19912;-64
2022/09/12 14:53:05;;;;;;;2.42;1.50;;;;;;;;;;5047852;28;20033;-64
2022/09/12 14:55:32;;;;;;;1.83;1.70;;;;;;;;;;5029983;28;20033;-63
2022/09/12 14:58:19;;;;;;;1.50;1.40;;;;;;;;;;5029977;28;20056;-64
2022/09/12 15:00:53;;;;;;;1.92;1.20;;;;;;;;;;5039553;28;20040;-64
2022/09/12 15:03:32;;;;;;;4.82;1.50;;;;;;;;;;5048980;28;20057;-64
2022/09/12 15:05:59;;;;;;;2.05;1.25;;;;;;;;;;5049232;28;20040;-63
2022/09/12 15:08:25;;;;;;;2.08;1.48;;;;;;;;;;5046030;28;20017;-64
2022/09/12 15:10:51;;;;;;;1.60;1.48;;;;;;;;;;5034590;28;20117;-64